Terminal Aerodrome Forecast
Issued by NWS

Home | Current Version | Previous Version | Text Only | Print | Product List | Glossary On
Versions: 1 2 3 4 5 6 7 8 9 10 11 12 13 14 15 16 17
000
FTUS41 KCAR 311733
TAFFVE
TAF
KFVE 311733Z 3118/0118 32016G28KT 6SM BLSN BKN040
     FM010400 31015KT 6SM BLSN SCT250
     FM011100 31014KT P6SM SCT200=

USA.gov is the U.S. government's official web portal to all federal, state and local government web resources and services.